sensor_id;sensor_type;location;lat;lon;timestamp;P1;durP1;ratioP1;P2;durP2;ratioP2
74375;SDS011;62812;55.188;61.302;2023-04-25T00:01:49;4.78;;;1.50;;
74375;SDS011;62812;55.188;61.302;2023-04-25T00:06:43;6.25;;;1.70;;
74375;SDS011;62812;55.188;61.302;2023-04-25T00:09:10;7.22;;;1.80;;
74375;SDS011;62812;55.188;61.302;2023-04-25T00:11:37;3.90;;;1.65;;
74375;SDS011;62812;55.188;61.302;2023-04-25T00:14:05;8.25;;;1.80;;
74375;SDS011;62812;55.188;61.302;2023-04-25T00:16:32;9.05;;;1.80;;
74375;SDS011;62812;55.188;61.302;2023-04-25T00:19:05;5.80;;;1.70;;
74375;SDS011;62812;55.188;61.302;2023-04-25T00:21:33;10.30;;;1.90;;
74375;SDS011;62812;55.188;61.302;2023-04-25T00:24:01;8.30;;;1.73;;
74375;SDS011;62812;55.188;61.302;2023-04-25T00:26:28;5.93;;;1.60;;
74375;SDS011;62812;55.188;61.302;2023-04-25T00:28:55;5.00;;;1.70;;
74375;SDS011;62812;55.188;61.302;2023-04-25T00:31:22;8.30;;;1.77;;
74375;SDS011;62812;55.188;61.302;2023-04-25T00:33:49;9.40;;;1.80;;
74375;SDS011;62812;55.188;61.302;2023-04-25T00:36:18;8.18;;;2.28;;
74375;SDS011;62812;55.188;61.302;2023-04-25T00:38:44;11.48;;;2.20;;
74375;SDS011;62812;55.188;61.302;2023-04-25T00:41:11;20.58;;;2.25;;
74375;SDS011;62812;55.188;61.302;2023-04-25T00:43:38;12.38;;;2.25;;
74375;SDS011;62812;55.188;61.302;2023-04-25T00:46:06;10.35;;;1.88;;
74375;SDS011;62812;55.188;61.302;2023-04-25T00:48:33;9.15;;;2.00;;
74375;SDS011;62812;55.188;61.302;2023-04-25T00:51:00;8.95;;;1.92;;
74375;SDS011;62812;55.188;61.302;2023-04-25T00:53:29;5.93;;;1.90;;
74375;SDS011;62812;55.188;61.302;2023-04-25T00:55:58;10.43;;;2.10;;
74375;SDS011;62812;55.188;61.302;2023-04-25T00:58:25;12.95;;;1.95;;
74375;SDS011;62812;55.188;61.302;2023-04-25T01:00:52;17.83;;;2.45;;
74375;SDS011;62812;55.188;61.302;2023-04-25T01:03:18;11.73;;;2.67;;
74375;SDS011;62812;55.188;61.302;2023-04-25T01:05:46;15.50;;;3.78;;
74375;SDS011;62812;55.188;61.302;2023-04-25T01:08:14;13.57;;;3.25;;
74375;SDS011;62812;55.188;61.302;2023-04-25T01:10:42;24.90;;;5.10;;
74375;SDS011;62812;55.188;61.302;2023-04-25T01:13:09;17.98;;;4.20;;
74375;SDS011;62812;55.188;61.302;2023-04-25T01:15:35;12.82;;;3.33;;
74375;SDS011;62812;55.188;61.302;2023-04-25T01:18:03;17.60;;;5.55;;
74375;SDS011;62812;55.188;61.302;2023-04-25T01:20:31;18.20;;;3.72;;
74375;SDS011;62812;55.188;61.302;2023-04-25T01:22:59;20.88;;;4.05;;
74375;SDS011;62812;55.188;61.302;2023-04-25T01:27:54;12.10;;;3.08;;
74375;SDS011;62812;55.188;61.302;2023-04-25T01:30:21;12.48;;;2.90;;
74375;SDS011;62812;55.188;61.302;2023-04-25T01:32:49;9.80;;;2.53;;
74375;SDS011;62812;55.188;61.302;2023-04-25T01:35:16;11.32;;;2.35;;
74375;SDS011;62812;55.188;61.302;2023-04-25T01:37:43;11.90;;;2.63;;
74375;SDS011;62812;55.188;61.302;2023-04-25T01:40:11;37.10;;;3.97;;
74375;SDS011;62812;55.188;61.302;2023-04-25T01:42:40;17.38;;;3.25;;
74375;SDS011;62812;55.188;61.302;2023-04-25T01:45:09;13.55;;;2.50;;
74375;SDS011;62812;55.188;61.302;2023-04-25T01:47:38;17.63;;;2.90;;
74375;SDS011;62812;55.188;61.302;2023-04-25T01:50:06;25.52;;;3.72;;
74375;SDS011;62812;55.188;61.302;2023-04-25T01:52:35;28.88;;;3.22;;
74375;SDS011;62812;55.188;61.302;2023-04-25T01:55:03;16.88;;;3.42;;
74375;SDS011;62812;55.188;61.302;2023-04-25T01:57:34;23.83;;;3.65;;
74375;SDS011;62812;55.188;61.302;2023-04-25T02:00:06;29.05;;;3.03;;
74375;SDS011;62812;55.188;61.302;2023-04-25T02:02:35;17.67;;;3.45;;
74375;SDS011;62812;55.188;61.302;2023-04-25T02:05:03;14.13;;;2.65;;
74375;SDS011;62812;55.188;61.302;2023-04-25T02:07:31;20.42;;;3.60;;
74375;SDS011;62812;55.188;61.302;2023-04-25T02:09:59;18.20;;;3.58;;
74375;SDS011;62812;55.188;61.302;2023-04-25T02:12:27;20.40;;;3.50;;
74375;SDS011;62812;55.188;61.302;2023-04-25T02:14:57;26.35;;;3.67;;
74375;SDS011;62812;55.188;61.302;2023-04-25T02:17:24;15.23;;;3.17;;
74375;SDS011;62812;55.188;61.302;2023-04-25T02:19:51;16.38;;;3.70;;
74375;SDS011;62812;55.188;61.302;2023-04-25T02:22:18;22.60;;;4.00;;
74375;SDS011;62812;55.188;61.302;2023-04-25T02:24:46;26.48;;;3.70;;
74375;SDS011;62812;55.188;61.302;2023-04-25T02:27:15;21.73;;;4.25;;
74375;SDS011;62812;55.188;61.302;2023-04-25T02:29:43;26.70;;;3.42;;
74375;SDS011;62812;55.188;61.302;2023-04-25T02:32:23;17.40;;;2.60;;
74375;SDS011;62812;55.188;61.302;2023-04-25T02:35:00;13.65;;;2.55;;
74375;SDS011;62812;55.188;61.302;2023-04-25T02:37:30;14.05;;;2.80;;
74375;SDS011;62812;55.188;61.302;2023-04-25T02:39:57;20.58;;;2.80;;
74375;SDS011;62812;55.188;61.302;2023-04-25T02:42:30;15.10;;;3.50;;
74375;SDS011;62812;55.188;61.302;2023-04-25T02:44:59;13.68;;;2.70;;
74375;SDS011;62812;55.188;61.302;2023-04-25T03:38:53;8.07;;;2.00;;
74375;SDS011;62812;55.188;61.302;2023-04-25T03:41:20;17.45;;;2.67;;
74375;SDS011;62812;55.188;61.302;2023-04-25T03:43:49;18.17;;;2.60;;
74375;SDS011;62812;55.188;61.302;2023-04-25T03:46:28;12.18;;;2.17;;
74375;SDS011;62812;55.188;61.302;2023-04-25T03:52:06;8.27;;;1.95;;
74375;SDS011;62812;55.188;61.302;2023-04-25T03:54:38;11.60;;;2.17;;
74375;SDS011;62812;55.188;61.302;2023-04-25T03:57:06;9.98;;;2.00;;
74375;SDS011;62812;55.188;61.302;2023-04-25T03:59:36;18.23;;;3.22;;
74375;SDS011;62812;55.188;61.302;2023-04-25T04:02:17;13.82;;;2.33;;
74375;SDS011;62812;55.188;61.302;2023-04-25T04:04:47;11.88;;;2.10;;
74375;SDS011;62812;55.188;61.302;2023-04-25T04:07:20;8.60;;;2.33;;
74375;SDS011;62812;55.188;61.302;2023-04-25T04:10:06;21.35;;;2.30;;
74375;SDS011;62812;55.188;61.302;2023-04-25T04:12:37;9.30;;;2.75;;
74375;SDS011;62812;55.188;61.302;2023-04-25T04:15:06;12.07;;;2.28;;
74375;SDS011;62812;55.188;61.302;2023-04-25T04:17:38;7.15;;;1.90;;
74375;SDS011;62812;55.188;61.302;2023-04-25T04:20:05;8.65;;;2.00;;
74375;SDS011;62812;55.188;61.302;2023-04-25T04:22:34;8.30;;;2.30;;
74375;SDS011;62812;55.188;61.302;2023-04-25T04:25:10;9.45;;;2.08;;
74375;SDS011;62812;55.188;61.302;2023-04-25T04:27:41;10.20;;;2.20;;
74375;SDS011;62812;55.188;61.302;2023-04-25T04:30:24;10.25;;;2.15;;
74375;SDS011;62812;55.188;61.302;2023-04-25T05:24:13;27.70;;;2.90;;
74375;SDS011;62812;55.188;61.302;2023-04-25T05:32:55;9.05;;;2.25;;
74375;SDS011;62812;55.188;61.302;2023-04-25T06:50:35;6.75;;;1.80;;
74375;SDS011;62812;55.188;61.302;2023-04-25T06:56:00;6.05;;;2.10;;
74375;SDS011;62812;55.188;61.302;2023-04-25T07:10:25;10.35;;;2.28;;
74375;SDS011;62812;55.188;61.302;2023-04-25T07:20:18;8.80;;;1.88;;
74375;SDS011;62812;55.188;61.302;2023-04-25T07:23:18;14.55;;;2.00;;
74375;SDS011;62812;55.188;61.302;2023-04-25T07:35:34;11.02;;;2.08;;
74375;SDS011;62812;55.188;61.302;2023-04-25T07:38:25;13.52;;;2.30;;
74375;SDS011;62812;55.188;61.302;2023-04-25T08:23:55;6.05;;;2.10;;
74375;SDS011;62812;55.188;61.302;2023-04-25T08:33:24;7.50;;;1.73;;
74375;SDS011;62812;55.188;61.302;2023-04-25T08:49:14;10.13;;;2.13;;
74375;SDS011;62812;55.188;61.302;2023-04-25T08:51:44;7.13;;;2.00;;
74375;SDS011;62812;55.188;61.302;2023-04-25T08:57:23;5.32;;;1.65;;
74375;SDS011;62812;55.188;61.302;2023-04-25T09:54:15;11.68;;;1.70;;
74375;SDS011;62812;55.188;61.302;2023-04-25T09:59:24;6.25;;;2.00;;
74375;SDS011;62812;55.188;61.302;2023-04-25T10:01:56;6.43;;;1.50;;
74375;SDS011;62812;55.188;61.302;2023-04-25T10:04:29;7.78;;;1.73;;
74375;SDS011;62812;55.188;61.302;2023-04-25T10:07:22;6.07;;;2.15;;
74375;SDS011;62812;55.188;61.302;2023-04-25T10:10:00;8.98;;;1.80;;
74375;SDS011;62812;55.188;61.302;2023-04-25T10:12:30;10.88;;;2.03;;
74375;SDS011;62812;55.188;61.302;2023-04-25T10:14:59;4.15;;;1.20;;
74375;SDS011;62812;55.188;61.302;2023-04-25T10:17:29;6.70;;;1.55;;
74375;SDS011;62812;55.188;61.302;2023-04-25T10:20:01;10.00;;;1.80;;
74375;SDS011;62812;55.188;61.302;2023-04-25T10:22:41;4.68;;;1.40;;
74375;SDS011;62812;55.188;61.302;2023-04-25T10:28:17;6.28;;;1.52;;
74375;SDS011;62812;55.188;61.302;2023-04-25T10:30:58;8.43;;;2.00;;
74375;SDS011;62812;55.188;61.302;2023-04-25T10:33:31;7.25;;;1.88;;
74375;SDS011;62812;55.188;61.302;2023-04-25T10:51:50;4.95;;;1.60;;
74375;SDS011;62812;55.188;61.302;2023-04-25T11:00:16;5.22;;;1.55;;
74375;SDS011;62812;55.188;61.302;2023-04-25T11:05:44;5.30;;;1.35;;
74375;SDS011;62812;55.188;61.302;2023-04-25T11:12:58;7.07;;;1.42;;
74375;SDS011;62812;55.188;61.302;2023-04-25T11:21:34;7.28;;;1.70;;
74375;SDS011;62812;55.188;61.302;2023-04-25T11:24:04;4.03;;;1.17;;
74375;SDS011;62812;55.188;61.302;2023-04-25T11:26:36;5.90;;;1.50;;
74375;SDS011;62812;55.188;61.302;2023-04-25T11:29:05;6.53;;;1.50;;
74375;SDS011;62812;55.188;61.302;2023-04-25T11:50:27;5.38;;;1.50;;
74375;SDS011;62812;55.188;61.302;2023-04-25T11:52:57;6.38;;;1.63;;
74375;SDS011;62812;55.188;61.302;2023-04-25T11:55:25;12.95;;;1.55;;
74375;SDS011;62812;55.188;61.302;2023-04-25T11:57:59;8.57;;;1.30;;
74375;SDS011;62812;55.188;61.302;2023-04-25T12:16:54;4.45;;;1.10;;
74375;SDS011;62812;55.188;61.302;2023-04-25T12:19:31;7.63;;;1.75;;
74375;SDS011;62812;55.188;61.302;2023-04-25T12:22:01;5.93;;;1.52;;
74375;SDS011;62812;55.188;61.302;2023-04-25T12:24:36;9.15;;;1.90;;
74375;SDS011;62812;55.188;61.302;2023-04-25T14:10:19;6.90;;;1.58;;
74375;SDS011;62812;55.188;61.302;2023-04-25T14:16:00;9.23;;;2.30;;
74375;SDS011;62812;55.188;61.302;2023-04-25T14:21:42;10.85;;;2.45;;
74375;SDS011;62812;55.188;61.302;2023-04-25T14:24:09;11.10;;;2.42;;
74375;SDS011;62812;55.188;61.302;2023-04-25T17:15:57;8.68;;;2.88;;
74375;SDS011;62812;55.188;61.302;2023-04-25T17:18:28;17.33;;;3.42;;
74375;SDS011;62812;55.188;61.302;2023-04-25T17:27:15;23.08;;;4.65;;
74375;SDS011;62812;55.188;61.302;2023-04-25T17:29:47;21.85;;;4.32;;
74375;SDS011;62812;55.188;61.302;2023-04-25T17:39:14;31.17;;;5.40;;
74375;SDS011;62812;55.188;61.302;2023-04-25T17:41:49;34.45;;;5.97;;
74375;SDS011;62812;55.188;61.302;2023-04-25T17:45:01;56.42;;;9.13;;
74375;SDS011;62812;55.188;61.302;2023-04-25T17:57:01;74.05;;;12.52;;
74375;SDS011;62812;55.188;61.302;2023-04-25T18:03:28;28.98;;;6.65;;
74375;SDS011;62812;55.188;61.302;2023-04-25T18:06:11;61.85;;;8.65;;
74375;SDS011;62812;55.188;61.302;2023-04-25T18:08:44;45.20;;;8.45;;
74375;SDS011;62812;55.188;61.302;2023-04-25T18:11:19;68.68;;;13.02;;
74375;SDS011;62812;55.188;61.302;2023-04-25T18:17:08;69.95;;;13.52;;
74375;SDS011;62812;55.188;61.302;2023-04-25T18:19:43;69.90;;;11.45;;
74375;SDS011;62812;55.188;61.302;2023-04-25T18:22:14;61.60;;;11.15;;
74375;SDS011;62812;55.188;61.302;2023-04-25T18:24:48;46.97;;;8.48;;
74375;SDS011;62812;55.188;61.302;2023-04-25T18:27:36;62.97;;;9.05;;
74375;SDS011;62812;55.188;61.302;2023-04-25T18:30:10;69.85;;;11.00;;
74375;SDS011;62812;55.188;61.302;2023-04-25T18:32:43;65.13;;;10.57;;
74375;SDS011;62812;55.188;61.302;2023-04-25T18:35:28;68.88;;;10.98;;
74375;SDS011;62812;55.188;61.302;2023-04-25T18:37:59;65.68;;;10.35;;
74375;SDS011;62812;55.188;61.302;2023-04-25T18:40:29;75.30;;;12.57;;
74375;SDS011;62812;55.188;61.302;2023-04-25T18:43:00;76.35;;;12.65;;
74375;SDS011;62812;55.188;61.302;2023-04-25T18:45:29;82.80;;;11.77;;
74375;SDS011;62812;55.188;61.302;2023-04-25T18:51:32;80.53;;;13.00;;
74375;SDS011;62812;55.188;61.302;2023-04-25T18:54:19;67.85;;;12.80;;
74375;SDS011;62812;55.188;61.302;2023-04-25T18:56:49;48.45;;;11.70;;
74375;SDS011;62812;55.188;61.302;2023-04-25T18:59:18;46.42;;;12.20;;
74375;SDS011;62812;55.188;61.302;2023-04-25T19:01:49;36.60;;;11.07;;
74375;SDS011;62812;55.188;61.302;2023-04-25T19:04:18;36.97;;;11.00;;
74375;SDS011;62812;55.188;61.302;2023-04-25T19:06:54;39.80;;;11.02;;
74375;SDS011;62812;55.188;61.302;2023-04-25T19:09:31;35.70;;;10.30;;
74375;SDS011;62812;55.188;61.302;2023-04-25T19:12:02;39.22;;;10.00;;
74375;SDS011;62812;55.188;61.302;2023-04-25T19:14:31;29.70;;;9.70;;
74375;SDS011;62812;55.188;61.302;2023-04-25T19:17:02;23.40;;;9.10;;
74375;SDS011;62812;55.188;61.302;2023-04-25T19:19:31;26.77;;;8.38;;
74375;SDS011;62812;55.188;61.302;2023-04-25T19:22:00;36.10;;;9.55;;
74375;SDS011;62812;55.188;61.302;2023-04-25T19:24:28;26.13;;;7.70;;
74375;SDS011;62812;55.188;61.302;2023-04-25T19:26:56;19.52;;;7.10;;
74375;SDS011;62812;55.188;61.302;2023-04-25T19:29:24;27.05;;;8.05;;
74375;SDS011;62812;55.188;61.302;2023-04-25T19:31:51;24.13;;;7.15;;
74375;SDS011;62812;55.188;61.302;2023-04-25T19:34:18;25.58;;;8.23;;
74375;SDS011;62812;55.188;61.302;2023-04-25T19:36:48;26.52;;;7.93;;
74375;SDS011;62812;55.188;61.302;2023-04-25T19:39:20;29.40;;;8.15;;
74375;SDS011;62812;55.188;61.302;2023-04-25T19:41:49;22.75;;;7.15;;
74375;SDS011;62812;55.188;61.302;2023-04-25T19:44:16;25.58;;;7.72;;
74375;SDS011;62812;55.188;61.302;2023-04-25T19:46:45;29.45;;;8.63;;
74375;SDS011;62812;55.188;61.302;2023-04-25T19:49:14;25.83;;;8.20;;
74375;SDS011;62812;55.188;61.302;2023-04-25T19:51:48;20.20;;;7.68;;
74375;SDS011;62812;55.188;61.302;2023-04-25T19:54:31;25.25;;;7.63;;
74375;SDS011;62812;55.188;61.302;2023-04-25T19:56:58;22.30;;;7.88;;
74375;SDS011;62812;55.188;61.302;2023-04-25T19:59:25;30.60;;;8.35;;
74375;SDS011;62812;55.188;61.302;2023-04-25T20:01:52;24.75;;;8.38;;
74375;SDS011;62812;55.188;61.302;2023-04-25T20:04:20;22.52;;;7.70;;
74375;SDS011;62812;55.188;61.302;2023-04-25T20:06:49;27.02;;;7.82;;
74375;SDS011;62812;55.188;61.302;2023-04-25T20:09:16;21.48;;;7.38;;
74375;SDS011;62812;55.188;61.302;2023-04-25T20:11:47;19.00;;;7.60;;
74375;SDS011;62812;55.188;61.302;2023-04-25T20:14:15;21.80;;;7.90;;
74375;SDS011;62812;55.188;61.302;2023-04-25T20:16:43;19.00;;;8.02;;
74375;SDS011;62812;55.188;61.302;2023-04-25T20:19:09;25.42;;;8.43;;
74375;SDS011;62812;55.188;61.302;2023-04-25T20:21:36;23.08;;;7.90;;
74375;SDS011;62812;55.188;61.302;2023-04-25T20:24:04;19.13;;;7.93;;
74375;SDS011;62812;55.188;61.302;2023-04-25T20:26:33;21.80;;;8.38;;
74375;SDS011;62812;55.188;61.302;2023-04-25T20:29:06;19.92;;;7.22;;
74375;SDS011;62812;55.188;61.302;2023-04-25T20:31:35;20.75;;;7.13;;
74375;SDS011;62812;55.188;61.302;2023-04-25T20:34:02;23.50;;;7.47;;
74375;SDS011;62812;55.188;61.302;2023-04-25T20:36:29;22.35;;;8.30;;
74375;SDS011;62812;55.188;61.302;2023-04-25T20:38:57;20.02;;;7.45;;
74375;SDS011;62812;55.188;61.302;2023-04-25T20:41:24;26.58;;;8.70;;
74375;SDS011;62812;55.188;61.302;2023-04-25T20:43:51;24.90;;;7.70;;
74375;SDS011;62812;55.188;61.302;2023-04-25T20:46:20;22.60;;;7.80;;
74375;SDS011;62812;55.188;61.302;2023-04-25T20:48:48;17.27;;;7.50;;
74375;SDS011;62812;55.188;61.302;2023-04-25T20:51:17;19.27;;;7.93;;
74375;SDS011;62812;55.188;61.302;2023-04-25T20:53:45;17.60;;;6.55;;
74375;SDS011;62812;55.188;61.302;2023-04-25T20:56:12;17.88;;;7.20;;
74375;SDS011;62812;55.188;61.302;2023-04-25T20:58:40;20.52;;;7.10;;
74375;SDS011;62812;55.188;61.302;2023-04-25T21:01:07;24.48;;;6.95;;
74375;SDS011;62812;55.188;61.302;2023-04-25T21:03:36;31.80;;;8.35;;
74375;SDS011;62812;55.188;61.302;2023-04-25T21:06:03;21.42;;;7.30;;
74375;SDS011;62812;55.188;61.302;2023-04-25T21:08:32;21.70;;;6.78;;
74375;SDS011;62812;55.188;61.302;2023-04-25T21:11:01;16.20;;;7.45;;
74375;SDS011;62812;55.188;61.302;2023-04-25T21:13:29;18.33;;;6.30;;
74375;SDS011;62812;55.188;61.302;2023-04-25T21:15:56;22.52;;;7.40;;
74375;SDS011;62812;55.188;61.302;2023-04-25T21:18:24;19.67;;;6.50;;
74375;SDS011;62812;55.188;61.302;2023-04-25T21:20:53;20.60;;;6.85;;
74375;SDS011;62812;55.188;61.302;2023-04-25T21:23:21;16.30;;;6.78;;
74375;SDS011;62812;55.188;61.302;2023-04-25T21:25:48;18.85;;;7.10;;
74375;SDS011;62812;55.188;61.302;2023-04-25T21:28:17;15.68;;;6.35;;
74375;SDS011;62812;55.188;61.302;2023-04-25T21:30:44;17.23;;;6.50;;
74375;SDS011;62812;55.188;61.302;2023-04-25T21:33:12;18.73;;;6.40;;
74375;SDS011;62812;55.188;61.302;2023-04-25T21:35:40;17.60;;;6.70;;
74375;SDS011;62812;55.188;61.302;2023-04-25T21:38:09;14.70;;;6.03;;
74375;SDS011;62812;55.188;61.302;2023-04-25T21:40:38;12.75;;;4.93;;
74375;SDS011;62812;55.188;61.302;2023-04-25T21:43:05;16.73;;;6.50;;
74375;SDS011;62812;55.188;61.302;2023-04-25T21:45:33;14.57;;;6.25;;
74375;SDS011;62812;55.188;61.302;2023-04-25T21:48:00;14.77;;;5.88;;
74375;SDS011;62812;55.188;61.302;2023-04-25T21:50:27;21.95;;;7.13;;
74375;SDS011;62812;55.188;61.302;2023-04-25T21:52:54;20.05;;;6.88;;
74375;SDS011;62812;55.188;61.302;2023-04-25T21:55:25;19.50;;;6.88;;
74375;SDS011;62812;55.188;61.302;2023-04-25T21:57:53;23.20;;;6.80;;
74375;SDS011;62812;55.188;61.302;2023-04-25T22:00:21;19.30;;;6.68;;
74375;SDS011;62812;55.188;61.302;2023-04-25T22:02:52;19.33;;;5.53;;
74375;SDS011;62812;55.188;61.302;2023-04-25T22:05:24;19.10;;;6.20;;
74375;SDS011;62812;55.188;61.302;2023-04-25T22:08:11;17.92;;;6.28;;
74375;SDS011;62812;55.188;61.302;2023-04-25T22:10:41;17.13;;;5.68;;
74375;SDS011;62812;55.188;61.302;2023-04-25T22:13:08;16.33;;;5.72;;
74375;SDS011;62812;55.188;61.302;2023-04-25T22:15:37;19.40;;;6.13;;
74375;SDS011;62812;55.188;61.302;2023-04-25T22:18:04;17.33;;;5.97;;
74375;SDS011;62812;55.188;61.302;2023-04-25T22:20:31;15.77;;;5.78;;
74375;SDS011;62812;55.188;61.302;2023-04-25T22:22:59;15.07;;;5.57;;
74375;SDS011;62812;55.188;61.302;2023-04-25T22:25:26;21.88;;;5.95;;
74375;SDS011;62812;55.188;61.302;2023-04-25T22:27:58;17.42;;;6.05;;
74375;SDS011;62812;55.188;61.302;2023-04-25T22:30:25;27.63;;;6.78;;
74375;SDS011;62812;55.188;61.302;2023-04-25T22:32:54;23.58;;;6.40;;
74375;SDS011;62812;55.188;61.302;2023-04-25T22:35:21;21.52;;;5.63;;
74375;SDS011;62812;55.188;61.302;2023-04-25T22:37:49;22.85;;;6.13;;
74375;SDS011;62812;55.188;61.302;2023-04-25T22:40:16;20.02;;;6.25;;
74375;SDS011;62812;55.188;61.302;2023-04-25T22:42:43;13.40;;;5.60;;
74375;SDS011;62812;55.188;61.302;2023-04-25T22:45:12;18.00;;;6.05;;
74375;SDS011;62812;55.188;61.302;2023-04-25T22:47:39;15.20;;;5.97;;
74375;SDS011;62812;55.188;61.302;2023-04-25T22:50:07;14.75;;;6.07;;
74375;SDS011;62812;55.188;61.302;2023-04-25T22:52:38;18.33;;;5.88;;
74375;SDS011;62812;55.188;61.302;2023-04-25T22:55:07;16.45;;;5.50;;
74375;SDS011;62812;55.188;61.302;2023-04-25T22:57:36;16.63;;;5.53;;
74375;SDS011;62812;55.188;61.302;2023-04-25T23:00:07;27.27;;;6.35;;
74375;SDS011;62812;55.188;61.302;2023-04-25T23:02:46;22.10;;;7.13;;
74375;SDS011;62812;55.188;61.302;2023-04-25T23:05:14;21.58;;;6.30;;
74375;SDS011;62812;55.188;61.302;2023-04-25T23:07:42;24.05;;;6.40;;
74375;SDS011;62812;55.188;61.302;2023-04-25T23:10:12;15.02;;;6.40;;
74375;SDS011;62812;55.188;61.302;2023-04-25T23:12:39;18.83;;;6.07;;
74375;SDS011;62812;55.188;61.302;2023-04-25T23:15:07;13.65;;;6.20;;
74375;SDS011;62812;55.188;61.302;2023-04-25T23:17:35;14.88;;;6.32;;
74375;SDS011;62812;55.188;61.302;2023-04-25T23:20:05;16.55;;;6.55;;
74375;SDS011;62812;55.188;61.302;2023-04-25T23:22:35;22.42;;;6.50;;
74375;SDS011;62812;55.188;61.302;2023-04-25T23:25:04;16.85;;;6.28;;
74375;SDS011;62812;55.188;61.302;2023-04-25T23:27:32;14.32;;;6.35;;
74375;SDS011;62812;55.188;61.302;2023-04-25T23:30:00;14.88;;;5.90;;
74375;SDS011;62812;55.188;61.302;2023-04-25T23:32:27;18.60;;;6.05;;
74375;SDS011;62812;55.188;61.302;2023-04-25T23:34:54;21.25;;;6.80;;
74375;SDS011;62812;55.188;61.302;2023-04-25T23:37:23;21.77;;;6.00;;
74375;SDS011;62812;55.188;61.302;2023-04-25T23:39:50;14.77;;;5.43;;
74375;SDS011;62812;55.188;61.302;2023-04-25T23:42:17;17.27;;;6.05;;
74375;SDS011;62812;55.188;61.302;2023-04-25T23:44:45;22.92;;;6.30;;
74375;SDS011;62812;55.188;61.302;2023-04-25T23:47:11;16.38;;;6.20;;
74375;SDS011;62812;55.188;61.302;2023-04-25T23:49:42;14.50;;;5.15;;
74375;SDS011;62812;55.188;61.302;2023-04-25T23:52:09;14.82;;;6.60;;
74375;SDS011;62812;55.188;61.302;2023-04-25T23:54:38;15.85;;;6.00;;
74375;SDS011;62812;55.188;61.302;2023-04-25T23:57:05;14.75;;;5.85;;
74375;SDS011;62812;55.188;61.302;2023-04-25T23:59:31;15.05;;;5.60;;
